sensor_id;sensor_type;location;lat;lon;timestamp;pressure;altitude;pressure_sealevel;temperature;humidity
73016;BME280;61893;50.074;14.440;2023-04-19T00:00:09;98991.66;;;9.18;89.45
73016;BME280;61893;50.074;14.440;2023-04-19T00:03:04;98987.97;;;9.10;89.57
73016;BME280;61893;50.074;14.440;2023-04-19T00:06:37;98984.22;;;9.12;90.09
73016;BME280;61893;50.074;14.440;2023-04-19T00:09:54;98978.06;;;9.12;89.44
73016;BME280;61893;50.074;14.440;2023-04-19T00:13:00;98981.03;;;9.18;89.57
73016;BME280;61893;50.074;14.440;2023-04-19T00:15:28;98983.84;;;9.17;89.71
73016;BME280;61893;50.074;14.440;2023-04-19T00:17:54;98982.72;;;9.19;89.67
73016;BME280;61893;50.074;14.440;2023-04-19T00:20:24;98971.13;;;9.20;89.33
73016;BME280;61893;50.074;14.440;2023-04-19T00:22:49;98968.81;;;9.27;89.07
73016;BME280;61893;50.074;14.440;2023-04-19T00:25:27;98959.41;;;9.23;89.26
73016;BME280;61893;50.074;14.440;2023-04-19T00:27:53;98954.94;;;9.23;89.24
73016;BME280;61893;50.074;14.440;2023-04-19T00:31:01;98960.06;;;9.15;89.53
73016;BME280;61893;50.074;14.440;2023-04-19T00:33:28;98951.69;;;9.10;89.41
73016;BME280;61893;50.074;14.440;2023-04-19T00:36:33;98945.22;;;9.13;89.78
73016;BME280;61893;50.074;14.440;2023-04-19T00:39:16;98946.75;;;9.06;89.65
73016;BME280;61893;50.074;14.440;2023-04-19T00:42:17;98938.13;;;9.13;89.71
73016;BME280;61893;50.074;14.440;2023-04-19T00:45:11;98937.03;;;9.16;89.29
73016;BME280;61893;50.074;14.440;2023-04-19T00:47:37;98934.22;;;9.17;89.47
73016;BME280;61893;50.074;14.440;2023-04-19T00:50:03;98936.63;;;9.20;89.65
73016;BME280;61893;50.074;14.440;2023-04-19T00:52:42;98930.16;;;9.13;89.38
73016;BME280;61893;50.074;14.440;2023-04-19T00:55:09;98923.88;;;9.14;89.46
73016;BME280;61893;50.074;14.440;2023-04-19T00:57:46;98931.53;;;9.08;89.81
73016;BME280;61893;50.074;14.440;2023-04-19T01:00:15;98924.25;;;9.10;90.28
73016;BME280;61893;50.074;14.440;2023-04-19T01:02:47;98921.94;;;9.16;90.52
73016;BME280;61893;50.074;14.440;2023-04-19T01:05:19;98921.50;;;9.21;90.03
73016;BME280;61893;50.074;14.440;2023-04-19T01:07:56;98916.75;;;9.15;89.97
73016;BME280;61893;50.074;14.440;2023-04-19T01:10:22;98911.00;;;9.10;90.26
73016;BME280;61893;50.074;14.440;2023-04-19T01:12:48;98911.44;;;9.15;90.41
73016;BME280;61893;50.074;14.440;2023-04-19T01:15:14;98907.94;;;9.14;89.93
73016;BME280;61893;50.074;14.440;2023-04-19T01:17:40;98902.75;;;9.13;90.30
73016;BME280;61893;50.074;14.440;2023-04-19T01:20:31;98903.19;;;9.08;90.54
73016;BME280;61893;50.074;14.440;2023-04-19T01:22:57;98901.25;;;9.10;90.03
73016;BME280;61893;50.074;14.440;2023-04-19T01:25:40;98895.22;;;9.08;90.29
73016;BME280;61893;50.074;14.440;2023-04-19T01:28:19;98895.06;;;9.10;90.04
73016;BME280;61893;50.074;14.440;2023-04-19T01:30:51;98887.53;;;9.05;90.43
73016;BME280;61893;50.074;14.440;2023-04-19T01:33:19;98884.34;;;9.21;89.96
73016;BME280;61893;50.074;14.440;2023-04-19T01:36:08;98879.84;;;9.12;89.61
73016;BME280;61893;50.074;14.440;2023-04-19T01:39:00;98883.22;;;9.14;89.71
73016;BME280;61893;50.074;14.440;2023-04-19T01:41:40;98880.28;;;9.17;89.44
73016;BME280;61893;50.074;14.440;2023-04-19T01:44:06;98874.28;;;9.15;89.64
73016;BME280;61893;50.074;14.440;2023-04-19T01:46:32;98872.72;;;9.12;90.36
73016;BME280;61893;50.074;14.440;2023-04-19T01:48:58;98869.78;;;9.15;90.03
73016;BME280;61893;50.074;14.440;2023-04-19T01:51:24;98873.25;;;9.06;90.57
73016;BME280;61893;50.074;14.440;2023-04-19T01:53:50;98866.00;;;9.08;89.93
73016;BME280;61893;50.074;14.440;2023-04-19T01:56:18;98865.44;;;9.05;90.29
73016;BME280;61893;50.074;14.440;2023-04-19T01:58:47;98865.44;;;9.05;90.64
73016;BME280;61893;50.074;14.440;2023-04-19T02:01:13;98870.34;;;9.09;90.97
73016;BME280;61893;50.074;14.440;2023-04-19T02:03:44;98865.88;;;9.10;91.41
73016;BME280;61893;50.074;14.440;2023-04-19T02:06:13;98866.81;;;8.99;91.85
73016;BME280;61893;50.074;14.440;2023-04-19T02:08:55;98863.75;;;9.03;92.58
73016;BME280;61893;50.074;14.440;2023-04-19T02:14:03;98864.47;;;9.06;92.25
73016;BME280;61893;50.074;14.440;2023-04-19T02:16:29;98869.78;;;9.06;92.23
73016;BME280;61893;50.074;14.440;2023-04-19T02:18:55;98854.84;;;9.05;92.85
73016;BME280;61893;50.074;14.440;2023-04-19T02:21:21;98856.94;;;9.11;93.01
73016;BME280;61893;50.074;14.440;2023-04-19T02:23:47;98863.38;;;9.08;93.51
73016;BME280;61893;50.074;14.440;2023-04-19T02:26:13;98860.25;;;9.03;94.21
73016;BME280;61893;50.074;14.440;2023-04-19T02:28:39;98856.38;;;9.07;93.94
73016;BME280;61893;50.074;14.440;2023-04-19T02:31:08;98856.78;;;9.02;94.76
73016;BME280;61893;50.074;14.440;2023-04-19T02:33:34;98856.59;;;8.94;95.36
73016;BME280;61893;50.074;14.440;2023-04-19T02:36:03;98855.22;;;8.90;95.74
73016;BME280;61893;50.074;14.440;2023-04-19T02:43:50;98841.75;;;8.82;97.21
73016;BME280;61893;50.074;14.440;2023-04-19T02:46:16;98833.66;;;8.84;97.20
73016;BME280;61893;50.074;14.440;2023-04-19T02:48:42;98838.84;;;8.85;97.28
73016;BME280;61893;50.074;14.440;2023-04-19T02:51:14;98838.13;;;8.83;97.82
73016;BME280;61893;50.074;14.440;2023-04-19T02:53:39;98832.19;;;8.70;98.25
73016;BME280;61893;50.074;14.440;2023-04-19T02:56:06;98824.41;;;8.78;98.02
73016;BME280;61893;50.074;14.440;2023-04-19T02:58:32;98828.16;;;8.75;97.96
73016;BME280;61893;50.074;14.440;2023-04-19T03:01:00;98821.06;;;8.76;98.39
73016;BME280;61893;50.074;14.440;2023-04-19T03:03:26;98825.22;;;8.69;98.52
73016;BME280;61893;50.074;14.440;2023-04-19T03:05:53;98819.38;;;8.75;98.03
73016;BME280;61893;50.074;14.440;2023-04-19T03:08:19;98808.19;;;8.71;98.16
73016;BME280;61893;50.074;14.440;2023-04-19T03:10:45;98811.97;;;8.69;98.37
73016;BME280;61893;50.074;14.440;2023-04-19T03:13:14;98801.78;;;8.74;98.38
73016;BME280;61893;50.074;14.440;2023-04-19T03:15:40;98811.69;;;8.72;98.06
73016;BME280;61893;50.074;14.440;2023-04-19T03:18:05;98803.47;;;8.75;97.95
73016;BME280;61893;50.074;14.440;2023-04-19T03:20:32;98801.91;;;8.72;98.00
73016;BME280;61893;50.074;14.440;2023-04-19T03:22:58;98799.69;;;8.68;98.44
73016;BME280;61893;50.074;14.440;2023-04-19T03:25:24;98800.50;;;8.68;98.29
73016;BME280;61893;50.074;14.440;2023-04-19T03:27:50;98791.44;;;8.71;97.70
73016;BME280;61893;50.074;14.440;2023-04-19T03:30:16;98792.41;;;8.70;98.20
73016;BME280;61893;50.074;14.440;2023-04-19T03:32:42;98788.09;;;8.69;97.54
73016;BME280;61893;50.074;14.440;2023-04-19T03:35:09;98788.50;;;8.64;98.22
73016;BME280;61893;50.074;14.440;2023-04-19T03:37:35;98791.16;;;8.64;97.85
73016;BME280;61893;50.074;14.440;2023-04-19T03:40:01;98790.34;;;8.73;97.70
73016;BME280;61893;50.074;14.440;2023-04-19T03:42:27;98784.22;;;8.73;97.28
73016;BME280;61893;50.074;14.440;2023-04-19T03:44:53;98776.63;;;8.68;97.89
73016;BME280;61893;50.074;14.440;2023-04-19T03:47:20;98775.47;;;8.61;97.24
73016;BME280;61893;50.074;14.440;2023-04-19T03:49:46;98776.09;;;8.74;96.66
73016;BME280;61893;50.074;14.440;2023-04-19T03:52:12;98773.16;;;8.68;96.35
73016;BME280;61893;50.074;14.440;2023-04-19T03:54:39;98770.63;;;8.66;96.41
73016;BME280;61893;50.074;14.440;2023-04-19T03:57:05;98768.84;;;8.76;95.91
73016;BME280;61893;50.074;14.440;2023-04-19T03:59:31;98770.50;;;8.68;95.80
73016;BME280;61893;50.074;14.440;2023-04-19T04:01:57;98766.31;;;8.75;95.92
73016;BME280;61893;50.074;14.440;2023-04-19T04:04:23;98760.88;;;8.76;95.41
73016;BME280;61893;50.074;14.440;2023-04-19T04:06:49;98756.16;;;8.80;95.19
73016;BME280;61893;50.074;14.440;2023-04-19T04:09:15;98761.34;;;8.82;95.22
73016;BME280;61893;50.074;14.440;2023-04-19T04:11:40;98758.94;;;8.78;95.11
73016;BME280;61893;50.074;14.440;2023-04-19T04:14:06;98758.81;;;8.80;95.14
73016;BME280;61893;50.074;14.440;2023-04-19T04:16:32;98756.97;;;8.80;94.78
73016;BME280;61893;50.074;14.440;2023-04-19T04:18:58;98763.28;;;8.89;94.42
73016;BME280;61893;50.074;14.440;2023-04-19T04:21:24;98757.13;;;8.89;94.51
73016;BME280;61893;50.074;14.440;2023-04-19T04:23:51;98759.25;;;8.85;94.09
73016;BME280;61893;50.074;14.440;2023-04-19T04:26:23;98764.97;;;8.90;94.00
73016;BME280;61893;50.074;14.440;2023-04-19T04:28:50;98756.03;;;9.01;92.67
73016;BME280;61893;50.074;14.440;2023-04-19T04:31:16;98768.75;;;8.97;92.63
73016;BME280;61893;50.074;14.440;2023-04-19T04:34:01;98758.97;;;8.88;93.13
73016;BME280;61893;50.074;14.440;2023-04-19T04:36:29;98757.53;;;8.84;92.83
73016;BME280;61893;50.074;14.440;2023-04-19T04:39:06;98763.56;;;8.86;92.54
73016;BME280;61893;50.074;14.440;2023-04-19T04:41:43;98766.09;;;8.88;92.39
73016;BME280;61893;50.074;14.440;2023-04-19T04:44:09;98763.56;;;8.86;92.33
73016;BME280;61893;50.074;14.440;2023-04-19T04:49:17;98751.81;;;8.79;92.12
73016;BME280;61893;50.074;14.440;2023-04-19T04:57:25;98753.59;;;8.69;92.17
73016;BME280;61893;50.074;14.440;2023-04-19T05:00:03;98758.06;;;8.68;92.15
73016;BME280;61893;50.074;14.440;2023-04-19T05:02:39;98748.03;;;8.72;91.88
73016;BME280;61893;50.074;14.440;2023-04-19T05:05:05;98745.81;;;8.77;91.41
73016;BME280;61893;50.074;14.440;2023-04-19T05:07:37;98740.66;;;8.85;90.99
73016;BME280;61893;50.074;14.440;2023-04-19T05:10:22;98745.69;;;8.78;89.98
73016;BME280;61893;50.074;14.440;2023-04-19T05:13:14;98740.06;;;8.72;90.33
73016;BME280;61893;50.074;14.440;2023-04-19T05:15:40;98739.94;;;8.73;90.69
73016;BME280;61893;50.074;14.440;2023-04-19T05:18:20;98738.13;;;8.84;90.45
73016;BME280;61893;50.074;14.440;2023-04-19T05:21:23;98744.69;;;8.79;89.59
73016;BME280;61893;50.074;14.440;2023-04-19T05:24:30;98747.78;;;8.85;89.18
73016;BME280;61893;50.074;14.440;2023-04-19T05:27:29;98749.41;;;8.66;90.51
73016;BME280;61893;50.074;14.440;2023-04-19T05:29:57;98747.00;;;8.63;89.77
73016;BME280;61893;50.074;14.440;2023-04-19T05:32:38;98740.44;;;8.57;90.53
73016;BME280;61893;50.074;14.440;2023-04-19T05:35:25;98741.97;;;8.50;89.80
73016;BME280;61893;50.074;14.440;2023-04-19T05:38:40;98738.78;;;8.56;89.72
73016;BME280;61893;50.074;14.440;2023-04-19T05:41:06;98733.03;;;8.61;89.11
73016;BME280;61893;50.074;14.440;2023-04-19T05:43:32;98739.59;;;8.57;88.94
73016;BME280;61893;50.074;14.440;2023-04-19T05:46:31;98733.09;;;8.71;87.68
73016;BME280;61893;50.074;14.440;2023-04-19T05:49:06;98735.63;;;8.92;87.17
73016;BME280;61893;50.074;14.440;2023-04-19T06:09:25;98739.44;;;8.49;85.58
73016;BME280;61893;50.074;14.440;2023-04-19T06:27:10;98742.03;;;8.18;86.37
73016;BME280;61893;50.074;14.440;2023-04-19T06:35:58;98736.59;;;8.10;87.10
73016;BME280;61893;50.074;14.440;2023-04-19T07:08:48;98721.19;;;8.04;85.45
73016;BME280;61893;50.074;14.440;2023-04-19T08:02:20;98696.91;;;10.24;68.45
73016;BME280;61893;50.074;14.440;2023-04-19T08:18:03;98700.63;;;11.76;57.02
73016;BME280;61893;50.074;14.440;2023-04-19T08:38:43;98679.06;;;18.71;36.40
73016;BME280;61893;50.074;14.440;2023-04-19T08:41:29;98681.41;;;20.01;32.91
73016;BME280;61893;50.074;14.440;2023-04-19T09:01:41;98657.47;;;17.38;57.63
73016;BME280;61893;50.074;14.440;2023-04-19T09:04:07;98644.63;;;17.62;49.75
73016;BME280;61893;50.074;14.440;2023-04-19T09:06:37;98645.91;;;17.94;48.97
73016;BME280;61893;50.074;14.440;2023-04-19T09:09:23;98656.75;;;18.00;44.33
73016;BME280;61893;50.074;14.440;2023-04-19T09:11:49;98643.00;;;17.89;51.00
73016;BME280;61893;50.074;14.440;2023-04-19T09:14:20;98637.38;;;17.62;43.18
73016;BME280;61893;50.074;14.440;2023-04-19T09:56:12;98612.94;;;15.52;42.36
73016;BME280;61893;50.074;14.440;2023-04-19T09:58:38;98611.06;;;15.91;53.07
73016;BME280;61893;50.074;14.440;2023-04-19T10:01:04;98602.91;;;15.69;37.47
73016;BME280;61893;50.074;14.440;2023-04-19T10:03:31;98601.34;;;15.75;40.87
73016;BME280;61893;50.074;14.440;2023-04-19T10:05:57;98599.94;;;15.79;35.18
73016;BME280;61893;50.074;14.440;2023-04-19T10:08:25;98601.59;;;15.65;43.41
73016;BME280;61893;50.074;14.440;2023-04-19T10:10:53;98608.84;;;15.94;38.72
73016;BME280;61893;50.074;14.440;2023-04-19T10:13:20;98608.56;;;16.04;38.23
73016;BME280;61893;50.074;14.440;2023-04-19T10:39:44;98591.56;;;12.75;39.15
73016;BME280;61893;50.074;14.440;2023-04-19T11:04:06;98609.25;;;12.17;40.30
73016;BME280;61893;50.074;14.440;2023-04-19T13:26:32;98581.91;;;10.85;41.38
73016;BME280;61893;50.074;14.440;2023-04-19T14:03:21;98574.47;;;9.13;43.62
73016;BME280;61893;50.074;14.440;2023-04-19T14:15:32;98560.59;;;9.10;42.61
73016;BME280;61893;50.074;14.440;2023-04-19T14:18:25;98559.94;;;8.98;41.87
73016;BME280;61893;50.074;14.440;2023-04-19T14:30:19;98543.94;;;10.29;38.43
73016;BME280;61893;50.074;14.440;2023-04-19T16:23:41;98523.59;;;8.21;48.67
73016;BME280;61893;50.074;14.440;2023-04-19T16:40:57;98522.69;;;8.70;49.00
73016;BME280;61893;50.074;14.440;2023-04-19T17:03:16;98530.56;;;8.12;56.68
73016;BME280;61893;50.074;14.440;2023-04-19T17:12:12;98533.06;;;7.54;61.42
73016;BME280;61893;50.074;14.440;2023-04-19T17:36:43;98547.56;;;6.66;69.45
73016;BME280;61893;50.074;14.440;2023-04-19T17:39:31;98557.84;;;6.48;69.99
73016;BME280;61893;50.074;14.440;2023-04-19T17:48:34;98565.78;;;6.16;71.67
73016;BME280;61893;50.074;14.440;2023-04-19T17:51:46;98567.34;;;6.18;71.88
73016;BME280;61893;50.074;14.440;2023-04-19T18:22:06;98593.63;;;5.41;76.86
73016;BME280;61893;50.074;14.440;2023-04-19T18:35:10;98610.84;;;5.23;77.66
73016;BME280;61893;50.074;14.440;2023-04-19T18:58:19;98618.88;;;4.86;82.21
73016;BME280;61893;50.074;14.440;2023-04-19T19:31:04;98630.50;;;4.83;82.66
73016;BME280;61893;50.074;14.440;2023-04-19T19:57:40;98645.09;;;4.76;83.48
73016;BME280;61893;50.074;14.440;2023-04-19T20:21:40;98642.06;;;4.21;84.42
73016;BME280;61893;50.074;14.440;2023-04-19T20:39:40;98653.88;;;4.03;83.91
73016;BME280;61893;50.074;14.440;2023-04-19T20:45:14;98653.16;;;3.88;84.98
73016;BME280;61893;50.074;14.440;2023-04-19T21:05:37;98651.09;;;3.55;84.99
73016;BME280;61893;50.074;14.440;2023-04-19T21:11:19;98654.25;;;3.47;84.57
73016;BME280;61893;50.074;14.440;2023-04-19T21:14:01;98645.19;;;3.38;85.66
73016;BME280;61893;50.074;14.440;2023-04-19T21:22:19;98656.84;;;3.22;86.18
73016;BME280;61893;50.074;14.440;2023-04-19T21:25:17;98656.22;;;3.18;86.68
73016;BME280;61893;50.074;14.440;2023-04-19T21:39:42;98652.84;;;3.16;87.46
73016;BME280;61893;50.074;14.440;2023-04-19T21:48:25;98645.16;;;3.26;86.04
73016;BME280;61893;50.074;14.440;2023-04-19T21:50:56;98649.28;;;3.30;85.60
73016;BME280;61893;50.074;14.440;2023-04-19T21:53:36;98647.91;;;3.24;86.18
73016;BME280;61893;50.074;14.440;2023-04-19T22:02:06;98651.38;;;3.25;86.22
73016;BME280;61893;50.074;14.440;2023-04-19T22:04:43;98645.63;;;3.32;85.58
73016;BME280;61893;50.074;14.440;2023-04-19T22:07:44;98649.50;;;3.27;85.92
73016;BME280;61893;50.074;14.440;2023-04-19T22:16:42;98656.56;;;3.65;84.90
73016;BME280;61893;50.074;14.440;2023-04-19T22:22:27;98653.28;;;3.87;83.86
73016;BME280;61893;50.074;14.440;2023-04-19T22:25:19;98662.00;;;4.00;83.11
73016;BME280;61893;50.074;14.440;2023-04-19T22:37:38;98647.16;;;3.86;82.81
73016;BME280;61893;50.074;14.440;2023-04-19T22:49:13;98647.09;;;3.62;83.44
73016;BME280;61893;50.074;14.440;2023-04-19T22:51:57;98643.09;;;3.56;84.17
73016;BME280;61893;50.074;14.440;2023-04-19T23:00:58;98640.22;;;3.34;84.76
73016;BME280;61893;50.074;14.440;2023-04-19T23:03:45;98643.31;;;3.41;84.92
73016;BME280;61893;50.074;14.440;2023-04-19T23:06:42;98647.00;;;3.38;84.57
73016;BME280;61893;50.074;14.440;2023-04-19T23:09:37;98648.03;;;3.35;84.85
73016;BME280;61893;50.074;14.440;2023-04-19T23:14:56;98649.41;;;3.54;84.27
73016;BME280;61893;50.074;14.440;2023-04-19T23:20:50;98643.50;;;3.63;84.45
73016;BME280;61893;50.074;14.440;2023-04-19T23:23:42;98649.09;;;3.58;84.02
73016;BME280;61893;50.074;14.440;2023-04-19T23:26:20;98638.56;;;3.58;83.94
73016;BME280;61893;50.074;14.440;2023-04-19T23:29:10;98639.59;;;3.43;84.33
73016;BME280;61893;50.074;14.440;2023-04-19T23:32:02;98638.97;;;3.27;84.67
73016;BME280;61893;50.074;14.440;2023-04-19T23:34:36;98638.22;;;3.12;85.08
73016;BME280;61893;50.074;14.440;2023-04-19T23:37:02;98636.31;;;3.14;85.83
73016;BME280;61893;50.074;14.440;2023-04-19T23:39:28;98626.00;;;2.98;85.80
73016;BME280;61893;50.074;14.440;2023-04-19T23:42:09;98630.94;;;3.03;85.80
73016;BME280;61893;50.074;14.440;2023-04-19T23:44:37;98627.06;;;2.96;85.90
73016;BME280;61893;50.074;14.440;2023-04-19T23:47:21;98629.00;;;2.79;86.43
73016;BME280;61893;50.074;14.440;2023-04-19T23:49:56;98625.97;;;2.85;87.26
73016;BME280;61893;50.074;14.440;2023-04-19T23:55:13;98621.88;;;2.81;87.72
73016;BME280;61893;50.074;14.440;2023-04-19T23:57:40;98613.16;;;2.93;86.84
